createdAt,value
2017-08-12T00:01:06.143Z,98730.06
2017-08-12T00:03:35.885Z,98725.45
2017-08-12T00:06:05.610Z,98730.98
2017-08-12T00:08:35.143Z,98729.11
2017-08-12T00:11:04.723Z,98725.14
2017-08-12T00:13:34.448Z,98731.11
2017-08-12T00:16:04.207Z,98726.78
2017-08-12T00:18:33.944Z,98736.27
2017-08-12T00:21:03.663Z,98731.21
2017-08-12T00:23:33.395Z,98734.07
2017-08-12T00:26:03.133Z,98735.30
2017-08-12T00:28:32.906Z,98734.61
2017-08-12T00:31:02.627Z,98739.74
2017-08-12T00:33:32.372Z,98741.09
2017-08-12T00:36:02.083Z,98743.40
2017-08-12T00:38:31.817Z,98745.02
2017-08-12T00:41:01.545Z,98742.71
2017-08-12T00:43:31.269Z,98741.48
2017-08-12T00:46:01.019Z,98740.95
2017-08-12T00:48:30.750Z,98742.02
2017-08-12T00:51:00.508Z,98737.41
2017-08-12T00:53:30.236Z,98734.16
2017-08-12T00:55:59.960Z,98731.03
2017-08-12T00:58:29.706Z,98728.45
2017-08-12T01:00:59.093Z,98729.13
2017-08-12T01:03:28.809Z,98718.39
2017-08-12T01:05:58.344Z,98725.17
2017-08-12T01:08:27.911Z,98727.78
2017-08-12T01:10:57.646Z,98732.78
2017-08-12T01:13:27.368Z,98728.73
2017-08-12T01:15:57.096Z,98732.67
2017-08-12T01:18:26.835Z,98727.78
2017-08-12T01:20:56.588Z,98728.17
2017-08-12T01:23:26.062Z,98728.02
2017-08-12T01:25:55.765Z,98728.02
2017-08-12T01:28:25.487Z,98723.84
2017-08-12T01:30:55.224Z,98723.28
2017-08-12T01:33:24.673Z,98724.09
2017-08-12T01:35:54.396Z,98724.92
2017-08-12T01:38:24.120Z,98730.75
2017-08-12T01:40:53.850Z,98736.08
2017-08-12T01:43:23.607Z,98735.25
2017-08-12T01:45:53.372Z,98735.13
2017-08-12T01:48:23.080Z,98731.55
2017-08-12T01:50:52.797Z,98729.40
2017-08-12T01:53:22.558Z,98733.36
2017-08-12T01:55:52.299Z,98730.34
2017-08-12T01:58:22.028Z,98729.81
2017-08-12T02:00:51.482Z,98728.30
2017-08-12T02:03:21.320Z,98727.22
2017-08-12T02:05:51.055Z,98726.41
2017-08-12T02:08:20.791Z,98729.13
2017-08-12T02:10:50.536Z,98723.42
2017-08-12T02:13:20.268Z,98733.88
2017-08-12T02:15:50.005Z,98740.37
2017-08-12T02:18:19.760Z,98738.75
2017-08-12T02:20:49.532Z,98739.67
2017-08-12T02:23:19.001Z,98737.91
2017-08-12T02:25:48.752Z,98742.69
2017-08-12T02:28:18.477Z,98743.08
2017-08-12T02:30:48.212Z,98744.02
2017-08-12T02:33:17.973Z,98742.64
2017-08-12T02:35:47.684Z,98740.49
2017-08-12T02:38:17.424Z,98739.27
2017-08-12T02:40:47.148Z,98741.20
2017-08-12T02:43:16.884Z,98738.47
2017-08-12T02:45:46.329Z,98728.98
2017-08-12T02:48:16.061Z,98732.05
2017-08-12T02:50:45.786Z,98729.77
2017-08-12T02:53:15.508Z,98733.40
2017-08-12T02:55:45.244Z,98729.69
2017-08-12T02:58:14.973Z,98729.06
2017-08-12T03:00:44.728Z,98728.09
2017-08-12T03:03:14.456Z,98727.44
2017-08-12T03:05:44.306Z,98723.47
2017-08-12T03:08:14.024Z,98729.04
2017-08-12T03:10:43.753Z,98725.56
2017-08-12T03:13:13.476Z,98725.42
2017-08-12T03:15:43.213Z,98723.62
2017-08-12T03:18:12.958Z,98727.33
2017-08-12T03:20:42.689Z,98729.04
2017-08-12T03:23:12.419Z,98738.48
2017-08-12T03:25:42.152Z,98728.95
2017-08-12T03:28:11.861Z,98731.80
2017-08-12T03:30:41.640Z,98729.63
2017-08-12T03:33:11.365Z,98733.06
2017-08-12T03:35:41.104Z,98741.20
2017-08-12T03:38:10.839Z,98749.20
2017-08-12T03:40:40.561Z,98754.09
2017-08-12T03:43:10.278Z,98754.89
2017-08-12T03:45:40.000Z,98758.73
2017-08-12T03:48:09.736Z,98756.50
2017-08-12T03:50:39.476Z,98762.64
2017-08-12T03:53:09.197Z,98760.88
2017-08-12T03:55:38.952Z,98759.95
2017-08-12T03:58:08.694Z,98762.52
2017-08-12T04:00:39.136Z,98762.92
2017-08-12T04:03:08.692Z,98762.27
2017-08-12T04:05:38.109Z,98764.97
2017-08-12T04:08:07.875Z,98765.75
2017-08-12T04:10:37.590Z,98761.54
2017-08-12T04:13:07.320Z,98758.31
2017-08-12T04:15:37.056Z,98758.57
2017-08-12T04:18:06.908Z,98756.50
2017-08-12T04:20:36.624Z,98762.75
2017-08-12T04:23:06.357Z,98763.39
2017-08-12T04:25:36.097Z,98766.95
2017-08-12T04:28:05.827Z,98767.88
2017-08-12T04:30:35.558Z,98767.64
2017-08-12T04:33:05.286Z,98764.36
2017-08-12T04:35:35.028Z,98762.16
2017-08-12T04:38:04.777Z,98767.05
2017-08-12T04:40:34.513Z,98766.81
2017-08-12T04:43:04.334Z,98766.41
2017-08-12T04:45:34.432Z,98778.35
2017-08-12T04:48:03.820Z,98768.70
2017-08-12T04:50:33.569Z,98763.67
2017-08-12T04:53:03.292Z,98770.20
2017-08-12T04:55:33.016Z,98770.07
2017-08-12T04:58:02.780Z,98775.20
2017-08-12T05:00:32.529Z,98777.66
2017-08-12T05:03:02.263Z,98783.19
2017-08-12T05:05:31.992Z,98776.70
2017-08-12T05:08:01.714Z,98783.47
2017-08-12T05:10:31.456Z,98776.85
2017-08-12T05:13:01.183Z,98779.96
2017-08-12T05:15:30.911Z,98771.94
2017-08-12T05:18:00.634Z,98768.59
2017-08-12T05:20:30.372Z,98769.30
2017-08-12T05:23:00.116Z,98771.15
2017-08-12T05:25:29.840Z,98768.44
2017-08-12T05:27:59.421Z,98774.52
2017-08-12T05:30:29.147Z,98775.78
2017-08-12T05:32:58.876Z,98774.70
2017-08-12T05:35:28.626Z,98777.61
2017-08-12T05:37:58.340Z,98783.31
2017-08-12T05:40:28.117Z,98777.79
2017-08-12T05:42:57.845Z,98782.31
2017-08-12T05:45:27.607Z,98793.29
2017-08-12T05:47:57.355Z,98799.17
2017-08-12T05:50:27.081Z,98799.59
2017-08-12T05:52:56.818Z,98808.38
2017-08-12T05:55:26.551Z,98803.52
2017-08-12T05:57:56.291Z,98795.14
2017-08-12T06:00:26.001Z,98801.34
2017-08-12T06:02:55.725Z,98798.84
2017-08-12T06:05:25.437Z,98800.55
2017-08-12T06:07:55.221Z,98802.27
2017-08-12T06:10:24.951Z,98796.94
2017-08-12T06:12:54.669Z,98807.77
2017-08-12T06:15:24.425Z,98808.64
2017-08-12T06:17:54.172Z,98811.34
2017-08-12T06:20:23.920Z,98818.59
2017-08-12T06:22:53.642Z,98814.39
2017-08-12T06:25:23.402Z,98831.30
2017-08-12T06:27:52.887Z,98830.00
2017-08-12T06:30:23.333Z,98843.28
2017-08-12T06:32:52.765Z,98847.23
2017-08-12T06:35:22.245Z,98855.86
2017-08-12T06:37:51.672Z,98852.48
2017-08-12T06:40:21.198Z,98840.88
2017-08-12T06:42:50.636Z,98861.31
2017-08-12T06:45:20.127Z,98861.56
2017-08-12T06:47:49.573Z,98858.59
2017-08-12T06:50:19.167Z,98870.27
2017-08-12T06:52:48.889Z,98870.75
2017-08-12T06:55:18.398Z,98878.13
2017-08-12T06:57:48.104Z,98890.02
2017-08-12T07:00:17.593Z,98872.48
2017-08-12T07:02:47.026Z,98884.95
2017-08-12T07:05:16.494Z,98881.37
2017-08-12T07:07:45.761Z,98876.20
2017-08-12T07:10:15.296Z,98877.57
2017-08-12T07:12:46.653Z,98888.67
2017-08-12T07:15:16.432Z,98888.54
2017-08-12T07:17:46.310Z,98896.97
2017-08-12T07:20:15.822Z,98898.06
2017-08-12T07:22:45.289Z,98905.83
2017-08-12T07:25:15.071Z,98909.55
2017-08-12T07:27:44.802Z,98901.25
2017-08-12T07:30:14.556Z,98903.95
2017-08-12T07:32:43.984Z,98909.06
2017-08-12T07:35:13.475Z,98928.38
2017-08-12T07:37:42.908Z,98923.36
2017-08-12T07:40:12.400Z,98914.64
2017-08-12T07:42:41.847Z,98919.00
2017-08-12T07:45:11.327Z,98923.95
2017-08-12T07:47:40.795Z,98924.89
2017-08-12T07:50:10.964Z,98940.70
2017-08-12T07:52:40.694Z,98929.28
2017-08-12T07:55:10.186Z,98911.64
2017-08-12T07:57:39.633Z,98920.41
2017-08-12T08:00:09.112Z,98923.81
2017-08-12T08:02:38.558Z,98922.59
2017-08-12T08:05:08.054Z,98908.16
2017-08-12T08:07:37.472Z,98897.54
2017-08-12T08:10:06.967Z,98900.95
2017-08-12T08:12:36.396Z,98910.18
2017-08-12T08:15:05.906Z,98907.14
2017-08-12T08:17:35.381Z,98907.41
2017-08-12T08:20:04.513Z,98917.83
2017-08-12T08:22:33.954Z,98919.27
2017-08-12T08:25:03.424Z,98920.70
2017-08-12T08:27:32.891Z,98913.98
2017-08-12T08:30:02.356Z,98914.11
2017-08-12T08:32:31.788Z,98903.24
2017-08-12T08:35:01.241Z,98928.66
2017-08-12T08:37:30.699Z,98920.69
2017-08-12T08:40:00.133Z,98917.43
2017-08-12T08:42:29.717Z,98921.39
2017-08-12T08:44:59.172Z,98926.45
2017-08-12T08:47:28.604Z,98940.25
2017-08-12T08:49:58.060Z,98941.47
2017-08-12T08:52:27.507Z,98942.22
2017-08-12T08:54:56.949Z,98934.34
2017-08-12T08:57:26.420Z,98936.76
2017-08-12T08:59:55.844Z,98935.14
2017-08-12T09:02:25.305Z,98934.64
2017-08-12T09:04:54.754Z,98933.96
2017-08-12T09:07:24.189Z,98940.91
2017-08-12T09:09:53.712Z,98947.25
2017-08-12T09:12:23.169Z,98943.05
2017-08-12T09:14:52.620Z,98925.89
2017-08-12T09:17:22.069Z,98921.95
2017-08-12T09:19:51.511Z,98916.58
2017-08-12T09:22:20.978Z,98917.90
2017-08-12T09:24:50.432Z,98915.85
2017-08-12T09:27:19.885Z,98925.26
2017-08-12T09:29:49.329Z,98924.72
2017-08-12T09:32:18.812Z,98929.09
2017-08-12T09:34:48.255Z,98930.45
2017-08-12T09:37:17.696Z,98924.20
2017-08-12T09:39:47.155Z,98907.02
2017-08-12T09:42:16.595Z,98922.16
2017-08-12T09:44:46.046Z,98939.78
2017-08-12T09:47:15.517Z,98933.35
2017-08-12T09:49:44.997Z,98935.34
2017-08-12T09:52:14.462Z,98935.05
2017-08-12T09:54:43.917Z,98927.98
2017-08-12T09:57:13.349Z,98928.23
2017-08-12T09:59:42.899Z,98931.73
2017-08-12T10:02:12.328Z,98925.03
2017-08-12T10:04:41.780Z,98926.47
2017-08-12T10:07:11.222Z,98935.56
2017-08-12T10:09:40.665Z,98940.05
2017-08-12T10:12:10.116Z,98944.28
2017-08-12T10:14:39.565Z,98952.91
2017-08-12T10:17:09.007Z,98955.78
2017-08-12T10:19:38.464Z,98949.86
2017-08-12T10:22:07.808Z,98963.13
2017-08-12T10:24:37.241Z,98962.49
2017-08-12T10:27:06.703Z,98958.24
2017-08-12T10:29:36.157Z,98959.29
2017-08-12T10:32:05.605Z,98971.11
2017-08-12T10:34:35.046Z,98967.73
2017-08-12T10:37:04.491Z,98967.43
2017-08-12T10:39:33.923Z,98966.05
2017-08-12T10:42:03.396Z,98965.70
2017-08-12T10:44:32.850Z,98960.29
2017-08-12T10:47:02.297Z,98961.97
2017-08-12T10:49:31.754Z,98961.56
2017-08-12T10:54:39.724Z,98959.85
2017-08-12T10:57:09.170Z,98958.30
2017-08-12T10:59:38.617Z,98964.64
2017-08-12T11:02:08.072Z,98968.28
2017-08-12T11:04:37.565Z,98967.95
2017-08-12T11:07:07.021Z,98961.88
2017-08-12T11:09:36.491Z,98967.78
2017-08-12T11:12:05.947Z,98967.33
2017-08-12T11:14:35.390Z,98976.01
2017-08-12T11:17:04.695Z,98971.95
2017-08-12T11:19:34.125Z,98973.45
2017-08-12T11:22:03.568Z,98970.24
2017-08-12T11:24:33.040Z,98970.47
2017-08-12T11:27:02.480Z,98981.39
2017-08-12T11:29:31.962Z,98978.59
2017-08-12T11:32:01.393Z,98981.52
2017-08-12T11:34:30.837Z,98981.91
2017-08-12T11:37:00.299Z,98994.96
2017-08-12T11:39:29.721Z,98985.29
2017-08-12T11:41:59.160Z,98993.43
2017-08-12T11:44:28.612Z,99001.55
2017-08-12T11:46:58.061Z,98989.30
2017-08-12T11:49:27.524Z,98994.31
2017-08-12T11:51:56.968Z,98991.19
2017-08-12T11:54:26.413Z,98987.56
2017-08-12T11:56:55.871Z,98977.89
2017-08-12T11:59:25.307Z,98989.80
2017-08-12T12:01:54.759Z,98984.67
2017-08-12T12:04:24.230Z,98974.28
2017-08-12T12:06:53.665Z,98983.12
2017-08-12T12:09:23.137Z,98969.78
2017-08-12T12:11:52.580Z,98975.33
2017-08-12T12:14:22.053Z,98965.27
2017-08-12T12:16:51.524Z,98968.70
2017-08-12T12:19:20.972Z,98973.13
2017-08-12T12:21:50.444Z,98974.92
2017-08-12T12:24:20.097Z,98986.25
2017-08-12T12:26:49.558Z,98984.58
2017-08-12T12:29:18.988Z,98987.63
2017-08-12T12:31:48.441Z,98989.98
2017-08-12T12:34:17.893Z,98988.08
2017-08-12T12:36:47.336Z,98980.88
2017-08-12T12:39:16.796Z,98977.72
2017-08-12T12:41:46.239Z,98984.47
2017-08-12T12:44:15.686Z,98974.72
2017-08-12T12:46:45.129Z,98974.11
2017-08-12T12:49:14.585Z,98980.59
2017-08-12T12:51:44.030Z,98977.73
2017-08-12T12:54:13.538Z,98973.34
2017-08-12T12:56:42.985Z,98967.41
2017-08-12T12:59:12.445Z,98964.44
2017-08-12T13:01:41.885Z,98968.38
2017-08-12T13:04:11.342Z,98966.25
2017-08-12T13:06:40.804Z,98966.14
2017-08-12T13:09:10.265Z,98962.56
2017-08-12T13:11:39.841Z,98962.41
2017-08-12T13:14:09.302Z,98966.65
2017-08-12T13:16:39.778Z,98962.21
2017-08-12T13:19:09.243Z,98956.80
2017-08-12T13:21:38.681Z,98955.04
2017-08-12T13:24:08.121Z,98960.70
2017-08-12T13:26:37.575Z,98959.94
2017-08-12T13:29:07.017Z,98949.14
2017-08-12T13:31:36.472Z,98950.36
2017-08-12T13:34:05.923Z,98945.66
2017-08-12T13:36:35.375Z,98942.06
2017-08-12T13:39:04.249Z,98944.77
2017-08-12T13:41:33.702Z,98942.91
2017-08-12T13:44:03.155Z,98944.24
2017-08-12T13:46:32.604Z,98938.38
2017-08-12T13:49:02.064Z,98934.31
2017-08-12T13:51:31.481Z,98938.05
2017-08-12T13:54:00.953Z,98937.58
2017-08-12T13:56:30.406Z,98948.05
2017-08-12T13:58:59.855Z,98944.09
2017-08-12T14:01:29.321Z,98945.91
2017-08-12T14:03:58.765Z,98942.09
2017-08-12T14:06:28.201Z,98943.73
2017-08-12T14:08:57.712Z,98940.11
2017-08-12T14:11:27.161Z,98948.38
2017-08-12T14:13:56.650Z,98941.03
2017-08-12T14:16:26.076Z,98946.44
2017-08-12T14:18:55.539Z,98957.21
2017-08-12T14:21:24.836Z,98956.63
2017-08-12T14:23:54.408Z,98954.30
2017-08-12T14:26:24.108Z,98965.68
2017-08-12T14:28:53.631Z,98971.77
2017-08-12T14:31:23.158Z,98972.29
2017-08-12T14:33:52.676Z,98976.89
2017-08-12T14:36:22.132Z,98978.72
2017-08-12T14:41:30.161Z,98971.28
2017-08-12T14:43:59.628Z,98978.91
2017-08-12T14:46:29.107Z,98971.98
2017-08-12T14:48:58.559Z,98975.13
2017-08-12T14:51:28.017Z,98974.58
2017-08-12T14:53:57.444Z,98969.30
2017-08-12T14:56:26.916Z,98974.80
2017-08-12T14:58:56.364Z,98981.44
2017-08-12T15:01:25.810Z,98979.59
2017-08-12T15:03:55.249Z,98982.29
2017-08-12T15:06:24.707Z,98977.52
2017-08-12T15:08:54.147Z,98982.34
2017-08-12T15:11:23.594Z,98978.02
2017-08-12T15:13:53.060Z,98968.03
2017-08-12T15:16:22.516Z,98970.55
2017-08-12T15:18:51.972Z,98971.30
2017-08-12T15:21:21.422Z,98976.89
2017-08-12T15:23:50.862Z,98975.33
2017-08-12T15:26:20.314Z,98976.97
2017-08-12T15:28:49.778Z,98975.00
2017-08-12T15:31:19.226Z,98983.38
2017-08-12T15:33:48.478Z,98970.45
2017-08-12T15:36:17.921Z,98976.88
2017-08-12T15:38:47.369Z,98972.63
2017-08-12T15:41:16.809Z,98966.91
2017-08-12T15:43:46.317Z,98972.39
2017-08-12T15:46:15.738Z,98973.41
2017-08-12T15:48:45.202Z,98971.54
2017-08-12T15:51:14.484Z,98974.64
2017-08-12T15:53:43.921Z,98973.91
2017-08-12T15:56:13.363Z,98972.63
2017-08-12T15:58:42.824Z,98978.68
2017-08-12T16:01:12.401Z,98983.29
2017-08-12T16:03:41.827Z,98984.01
2017-08-12T16:06:11.279Z,98980.78
2017-08-12T16:08:40.516Z,98988.20
2017-08-12T16:11:09.971Z,98984.88
2017-08-12T16:13:39.413Z,98963.45
2017-08-12T16:16:08.917Z,98976.68
2017-08-12T16:18:38.387Z,98975.17
2017-08-12T16:21:07.825Z,98977.79
2017-08-12T16:23:37.315Z,98982.06
2017-08-12T16:26:06.771Z,98971.72
2017-08-12T16:28:36.249Z,98969.48
2017-08-12T16:31:05.701Z,98976.15
2017-08-12T16:33:34.955Z,98972.28
2017-08-12T16:36:04.389Z,98968.79
2017-08-12T16:38:33.866Z,98974.96
2017-08-12T16:41:03.302Z,98972.23
2017-08-12T16:43:32.766Z,98974.02
2017-08-12T16:46:02.269Z,98980.30
2017-08-12T16:48:31.718Z,98986.05
2017-08-12T16:51:00.957Z,98990.98
2017-08-12T16:53:30.392Z,98996.09
2017-08-12T16:55:59.844Z,98990.28
2017-08-12T16:58:29.324Z,98985.14
2017-08-12T17:00:58.793Z,98984.25
2017-08-12T17:03:28.025Z,98996.72
2017-08-12T17:05:57.482Z,98997.65
2017-08-12T17:08:26.730Z,98996.07
2017-08-12T17:10:55.977Z,98997.80
2017-08-12T17:13:25.227Z,98992.67
2017-08-12T17:15:54.466Z,98989.80
2017-08-12T17:18:23.918Z,98990.61
2017-08-12T17:20:53.365Z,98989.48
2017-08-12T17:23:22.810Z,98991.20
2017-08-12T17:25:52.044Z,98992.48
2017-08-12T17:28:21.318Z,98991.67
2017-08-12T17:30:50.637Z,98986.98
2017-08-12T17:33:19.879Z,98985.89
2017-08-12T17:35:49.122Z,98988.52
2017-08-12T17:38:18.386Z,98982.99
2017-08-12T17:40:47.658Z,98984.63
2017-08-12T17:43:16.905Z,98982.97
2017-08-12T17:45:46.145Z,98978.83
2017-08-12T17:48:15.392Z,98978.53
2017-08-12T17:50:44.705Z,98980.34
2017-08-12T17:53:13.940Z,98982.33
2017-08-12T17:55:43.170Z,98975.41
2017-08-12T17:58:12.437Z,98984.03
2017-08-12T18:00:41.687Z,98973.20
2017-08-12T18:03:10.925Z,98982.09
2017-08-12T18:05:40.198Z,98991.27
2017-08-12T18:08:09.436Z,98985.50
2017-08-12T18:10:38.737Z,98990.43
2017-08-12T18:13:08.056Z,98985.42
2017-08-12T18:15:37.391Z,98982.69
2017-08-12T18:18:06.666Z,98978.77
2017-08-12T18:20:35.933Z,98983.27
2017-08-12T18:23:05.207Z,98984.36
2017-08-12T18:25:34.541Z,98983.81
2017-08-12T18:28:03.785Z,98980.13
2017-08-12T18:30:33.069Z,98981.09
2017-08-12T18:33:02.327Z,98981.91
2017-08-12T18:35:31.587Z,98985.39
2017-08-12T18:38:00.900Z,98988.55
2017-08-12T18:40:30.124Z,98981.09
2017-08-12T18:42:59.394Z,98990.73
2017-08-12T18:45:28.748Z,98996.18
2017-08-12T18:47:57.984Z,98992.12
2017-08-12T18:50:27.232Z,98994.70
2017-08-12T18:52:56.491Z,99002.77
2017-08-12T18:55:25.759Z,99000.73
2017-08-12T18:57:55.036Z,99001.82
2017-08-12T19:00:24.315Z,99011.25
2017-08-12T19:02:53.640Z,99009.80
2017-08-12T19:05:23.890Z,99008.20
2017-08-12T19:07:53.145Z,99005.77
2017-08-12T19:10:22.416Z,99015.17
2017-08-12T19:12:51.657Z,99016.97
2017-08-12T19:15:20.963Z,99021.48
2017-08-12T19:17:50.238Z,99030.34
2017-08-12T19:20:19.517Z,99034.04
2017-08-12T19:22:48.813Z,99030.63
2017-08-12T19:25:18.119Z,99030.84
2017-08-12T19:27:47.398Z,99031.43
2017-08-12T19:30:16.686Z,99029.95
2017-08-12T19:32:45.937Z,99025.94
2017-08-12T19:35:15.266Z,99036.42
2017-08-12T19:37:44.517Z,99032.64
2017-08-12T19:40:13.811Z,99038.25
2017-08-12T19:42:43.153Z,99035.67
2017-08-12T19:45:12.451Z,99035.27
2017-08-12T19:47:41.708Z,99047.23
2017-08-12T19:50:10.977Z,99040.19
2017-08-12T19:52:40.224Z,99047.48
2017-08-12T19:55:09.588Z,99049.97
2017-08-12T19:57:38.833Z,99058.52
2017-08-12T20:00:08.106Z,99053.25
2017-08-12T20:02:37.345Z,99054.20
2017-08-12T20:05:06.644Z,99059.48
2017-08-12T20:07:35.909Z,99056.36
2017-08-12T20:10:05.175Z,99060.96
2017-08-12T20:12:34.460Z,99057.17
2017-08-12T20:15:03.753Z,99058.69
2017-08-12T20:17:32.990Z,99060.55
2017-08-12T20:20:02.280Z,99055.81
2017-08-12T20:22:31.516Z,99057.44
2017-08-12T20:25:00.787Z,99059.89
2017-08-12T20:27:30.089Z,99062.61
2017-08-12T20:29:59.312Z,99059.89
2017-08-12T20:32:28.560Z,99054.20
2017-08-12T20:34:57.846Z,99052.28
2017-08-12T20:37:27.088Z,99049.16
2017-08-12T20:39:56.337Z,99049.28
2017-08-12T20:42:25.590Z,99048.87
2017-08-12T20:44:54.831Z,99042.08
2017-08-12T20:47:24.093Z,99037.20
2017-08-12T20:49:53.346Z,99035.56
2017-08-12T20:52:22.617Z,99025.90
2017-08-12T20:54:51.865Z,99029.05
2017-08-12T20:57:21.108Z,99015.04
2017-08-12T20:59:50.357Z,99006.47
2017-08-12T21:02:19.597Z,99000.89
2017-08-12T21:04:48.844Z,98990.81
2017-08-12T21:07:18.088Z,98986.87
2017-08-12T21:09:47.340Z,98991.91
2017-08-12T21:12:16.578Z,98991.35
2017-08-12T21:14:45.825Z,98981.28
2017-08-12T21:17:15.086Z,98982.23
2017-08-12T21:19:44.346Z,98980.89
2017-08-12T21:22:13.582Z,98975.59
2017-08-12T21:24:42.863Z,98976.27
2017-08-12T21:27:12.087Z,98982.65
2017-08-12T21:29:41.336Z,98982.94
2017-08-12T21:32:10.576Z,98979.01
2017-08-12T21:34:39.835Z,98981.31
2017-08-12T21:37:09.072Z,98978.33
2017-08-12T21:39:38.320Z,98980.80
2017-08-12T21:42:07.714Z,98979.03
2017-08-12T21:44:36.958Z,98978.08
2017-08-12T21:47:06.223Z,98982.94
2017-08-12T21:49:36.181Z,98985.66
2017-08-12T21:52:05.085Z,98985.02
2017-08-12T21:54:34.337Z,98988.13
2017-08-12T21:57:03.613Z,98987.87
2017-08-12T21:59:32.890Z,98990.88
2017-08-12T22:02:01.937Z,98994.29
2017-08-12T22:04:31.173Z,98993.38
2017-08-12T22:07:00.416Z,98999.36
2017-08-12T22:09:29.662Z,99002.77
2017-08-12T22:11:58.913Z,99013.09
2017-08-12T22:14:28.149Z,99015.11
2017-08-12T22:16:57.397Z,99021.07
2017-08-12T22:19:26.653Z,99020.22
2017-08-12T22:21:55.902Z,99018.19
2017-08-12T22:24:25.141Z,99022.65
2017-08-12T22:26:54.393Z,99014.59
2017-08-12T22:29:23.646Z,99005.14
2017-08-12T22:31:52.933Z,99012.64
2017-08-12T22:34:22.196Z,99006.79
2017-08-12T22:36:51.427Z,99004.61
2017-08-12T22:39:20.685Z,99006.48
2017-08-12T22:41:49.940Z,99014.11
2017-08-12T22:44:19.177Z,99014.81
2017-08-12T22:46:48.427Z,99019.55
2017-08-12T22:49:17.672Z,99019.72
2017-08-12T22:51:46.912Z,99021.49
2017-08-12T22:54:16.192Z,99024.50
2017-08-12T22:56:45.467Z,99023.27
2017-08-12T22:59:14.709Z,99023.96
2017-08-12T23:01:43.976Z,99027.52
2017-08-12T23:04:13.208Z,99028.76
2017-08-12T23:06:42.450Z,99030.66
2017-08-12T23:09:11.705Z,99027.66
2017-08-12T23:11:40.970Z,99026.00
2017-08-12T23:14:10.224Z,99023.16
2017-08-12T23:16:39.480Z,99027.52
2017-08-12T23:19:08.721Z,99028.59
2017-08-12T23:21:37.968Z,99026.38
2017-08-12T23:24:07.205Z,99025.81
2017-08-12T23:26:36.456Z,99028.16
2017-08-12T23:29:05.691Z,99029.39
2017-08-12T23:31:34.949Z,99031.00
2017-08-12T23:34:04.189Z,99037.41
2017-08-12T23:36:33.419Z,99037.41
2017-08-12T23:39:02.660Z,99029.52
2017-08-12T23:41:31.913Z,99033.74
2017-08-12T23:44:01.166Z,99030.48
2017-08-12T23:46:30.402Z,99032.92
2017-08-12T23:48:59.655Z,99023.96
2017-08-12T23:51:28.972Z,99023.96
2017-08-12T23:53:58.215Z,99032.52
2017-08-12T23:56:27.452Z,99024.52
2017-08-12T23:58:56.714Z,99023.39
